Terminal Aerodrome Forecast
Issued by NWS North Platte, NE

Home | Current Version | Previous Version | Text Only | Print | Product List | Glossary On
Versions: 1 2 3 4 5 6 7 8 9 10 11 12 13 14 15 16 17 18 19 20 21 22 23 24 25 26
000
FTUS43 KLBF 272338
TAFVTN
TAF
KVTN 272338Z 2800/2824 06010G16KT P6SM VCSH BKN050 BKN100
      TEMPO 2800/2801 VRB12G25KT
     FM280100 06007KT P6SM SCT050 BKN100
     FM280300 07005KT P6SM SCT150 BKN250
     FM281500 09007KT P6SM SCT150
     FM281800 10009KT P6SM SCT050 BKN150=

USA.gov is the U.S. government's official web portal to all federal, state and local government web resources and services.